Currently 61°F in San Bernardino, California, USA
61°F
64°F / 61°F
calm
0.00"
Monday, May 29, 2017 2:47 AM PDT

San Bernardino, California Weather Summary
Last 36 Hours

Temperature Winds Hourly Humidity Dewpoint
Time Report Norm Report Norm Max Gusts Precip. Rpt. Norm Rpt. Norm Pressure
1Mon 02:47 AM  61.1°F  60°F  calm  1 mph  none  0.00"  79%  75%  54°F  52°F  N/A
3Mon 02:43 AM  60.9°F  60°F  calm  1 mph  none  ----  79%  75%  54°F  52°F  N/A
Mon 02:00 AM  62.0°F  61°F  calm  1 mph  6 mph  0.00"  78%  74%  55°F  52°F  N/A
Mon 01:00 AM  63.3°F  62°F  calm  1 mph  5 mph  0.00"  74%  72%  55°F  53°F  N/A
2Mon 12:01 AM  64.2°F  63°F  3 mph SW  2 mph  7 mph  ----  70%  69%  54°F  53°F  N/A
Mon 12:00 AM  64.0°F  63°F  3 mph SW  2 mph  10 mph  0.00"  70%  69%  54°F  53°F  N/A
Sun 11:00 PM  65.9°F  64°F  5 mph SW  2 mph  9 mph  0.00"  67%  67%  54°F  53°F  N/A
Sun 10:00 PM  68.1°F  66°F  5 mph SW  3 mph  10 mph  0.00"  62%  63%  54°F  52°F  N/A
Sun 09:00 PM  71.3°F  68°F  7 mph SW  4 mph  12 mph  0.00"  55%  57%  54°F  52°F  N/A
Sun 08:00 PM  75.5°F  71°F  3 mph SW  5 mph  12 mph  0.00"  48%  51%  53°F  52°F  N/A
Sun 07:00 PM  81.0°F  75°F  6 mph SW  5 mph  12 mph  0.00"  37%  44%  52°F  51°F  N/A
Sun 06:00 PM  83.2°F  78°F  7 mph SW  5 mph  14 mph  0.00"  29%  39%  47°F  50°F  N/A
Sun 05:00 PM  86.1°F  79°F  calm  5 mph  8 mph  0.00"  25%  35%  45°F  49°F  N/A
Sun 04:00 PM  86.2°F  80°F  calm  4 mph  13 mph  0.00"  25%  34%  45°F  48°F  N/A
Sun 03:00 PM  84.8°F  80°F  6 mph SW  4 mph  10 mph  0.00"  25%  34%  44°F  48°F  N/A
Sun 02:00 PM  82.9°F  79°F  calm  4 mph  12 mph  0.00"  29%  36%  46°F  49°F  N/A
Sun 01:00 PM  80.7°F  77°F  calm  3 mph  10 mph  0.00"  33%  40%  48°F  49°F  N/A
Sun 12:00 PM  77.9°F  74°F  1 mph SW  2 mph  10 mph  0.00"  38%  45%  49°F  51°F  N/A
Sun 11:00 AM  72.8°F  71°F  4 mph SW  2 mph  9 mph  0.00"  47%  52%  51°F  52°F  N/A
Sun 10:00 AM  69.5°F  67°F  3 mph S  2 mph  6 mph  0.00"  53%  60%  51°F  53°F  N/A
Sun 09:00 AM  65.0°F  64°F  calm  2 mph  5 mph  0.00"  62%  68%  51°F  53°F  N/A
Sun 08:00 AM  62.0°F  62°F  calm  1 mph  2 mph  0.00"  68%  74%  51°F  53°F  N/A
Sun 07:00 AM  58.0°F  59°F  calm  1 mph  2 mph  0.00"  76%  78%  50°F  52°F  N/A
Sun 06:00 AM  56.2°F  58°F  calm  1 mph  4 mph  0.00"  80%  80%  50°F  52°F  N/A
Sun 05:00 AM  57.1°F  59°F  calm  1 mph  2 mph  0.00"  77%  79%  50°F  52°F  N/A
Sun 04:00 AM  58.1°F  59°F  calm  1 mph  2 mph  0.00"  78%  78%  51°F  52°F  N/A
Sun 03:00 AM  58.6°F  60°F  calm  1 mph  2 mph  0.00"  78%  76%  51°F  52°F  N/A
Sun 02:00 AM  59.6°F  61°F  calm  1 mph  4 mph  0.00"  75%  74%  51°F  52°F  N/A
Sun 01:00 AM  60.1°F  62°F  calm  2 mph  6 mph  0.00"  73%  72%  51°F  53°F  N/A
Sun 12:00 AM  61.1°F  63°F  2 mph SW  2 mph  7 mph  0.00"  72%  70%  52°F  53°F  N/A
Sat 11:00 PM  62.6°F  64°F  1 mph SW  2 mph  7 mph  0.00"  67%  67%  51°F  53°F  N/A
Sat 10:00 PM  63.7°F  66°F  calm  3 mph  10 mph  0.00"  64%  63%  51°F  52°F  N/A
Sat 09:00 PM  66.1°F  68°F  6 mph W  4 mph  12 mph  0.00"  60%  58%  51°F  52°F  N/A
Sat 08:00 PM  69.0°F  71°F  7 mph SW  5 mph  15 mph  0.00"  55%  52%  51°F  52°F  N/A
Sat 07:00 PM  73.4°F  74°F  4 mph W  5 mph  16 mph  0.00"  46%  45%  51°F  51°F  N/A
Sat 06:00 PM  76.9°F  77°F  5 mph NW  5 mph  14 mph  0.00"  39%  40%  49°F  50°F  N/A
Sat 05:00 PM  79.1°F  79°F  calm  5 mph  11 mph  0.00"  30%  37%  44°F  49°F  N/A
Sat 04:00 PM  78.4°F  79°F  calm  4 mph  9 mph  0.00"  30%  35%  44°F  48°F  N/A
Sat 03:00 PM  77.6°F  79°F  calm  4 mph  10 mph  0.00"  34%  35%  46°F  48°F  N/A

  1. Current weather data. No green row appears if the current weather data is also the high or low for the current day.
  2. High temperature for the current day.
  3. Low temperature for the current day.

The San Bernardino, California weather pages are a service of WeatherCurrents.
Copyright ©Mon May 29 02:47:40 PDT 2017  WeatherCurrents. All rights reserved. - Submit questions and comments - Privacy Policy

This page automatically refreshes every 10 minutes.